Time;durP1;ratioP1;P1;durP2;ratioP2;P2;SDS_P1;SDS_P2;PMS_P1;PMS_P2;Temp;Humidity;BMP_temperature;BMP_pressure;BME280_temperature;BME280_humidity;BME280_pressure;Samples;Min_cycle;Max_cycle;Signal;HPM_P1;HPM_P2
2023/01/31 00:01:22;;;;;;;24.45;4.65;;;;;;;1.32;100.00;102488.03;4935021;29;20151;-78
2023/01/31 00:03:54;;;;;;;23.20;5.28;;;;;;;1.25;100.00;102482.09;4935281;29;20032;-78
2023/01/31 00:06:29;;;;;;;22.63;4.78;;;;;;;1.27;100.00;102492.25;4938138;29;20376;-78
2023/01/31 00:08:56;;;;;;;19.23;4.20;;;;;;;1.25;100.00;102487.19;4939318;29;20110;-81
2023/01/31 00:11:25;;;;;;;21.73;4.55;;;;;;;1.17;100.00;102476.13;4938939;29;20383;-79
2023/01/31 00:13:51;;;;;;;21.70;4.80;;;;;;;1.03;100.00;102460.00;4939101;29;20087;-79
2023/01/31 00:16:18;;;;;;;24.33;5.85;;;;;;;1.24;100.00;102498.19;4938862;29;20382;-80
2023/01/31 00:18:44;;;;;;;18.35;4.38;;;;;;;0.96;100.00;102456.56;4938639;29;20107;-80
2023/01/31 00:21:15;;;;;;;23.60;3.90;;;;;;;1.02;100.00;102465.94;4939047;29;20119;-80
2023/01/31 00:23:42;;;;;;;22.08;5.22;;;;;;;1.20;100.00;102495.66;4938774;29;20066;-80
2023/01/31 00:26:12;;;;;;;20.08;4.30;;;;;;;1.17;100.00;102508.34;4938762;29;20083;-80
2023/01/31 00:28:38;;;;;;;22.55;4.70;;;;;;;1.12;100.00;102509.19;4938547;29;20063;-78
2023/01/31 00:31:04;;;;;;;21.02;4.15;;;;;;;0.76;100.00;102461.59;4938487;29;20035;-79
2023/01/31 00:33:29;;;;;;;22.88;4.45;;;;;;;1.10;100.00;102517.69;4938656;29;20032;-79
2023/01/31 00:35:54;;;;;;;21.13;4.85;;;;;;;1.10;100.00;102512.59;4938796;29;20504;-80
2023/01/31 00:38:20;;;;;;;24.52;4.57;;;;;;;1.04;100.00;102502.38;4938802;29;20399;-80
2023/01/31 00:40:52;;;;;;;19.67;4.35;;;;;;;1.06;100.00;102506.63;4938353;29;20027;-80
2023/01/31 00:43:17;;;;;;;23.75;4.20;;;;;;;0.99;100.00;102492.22;4938393;29;20449;-82
2023/01/31 00:45:43;;;;;;;19.45;5.85;;;;;;;1.00;100.00;102491.38;4938374;29;20059;-79
2023/01/31 00:48:08;;;;;;;25.25;5.10;;;;;;;1.00;100.00;102493.91;4938353;29;20070;-79
2023/01/31 00:50:33;;;;;;;21.75;4.68;;;;;;;0.72;100.00;102443.78;4938544;29;20032;-79
2023/01/31 00:52:59;;;;;;;23.45;5.10;;;;;;;0.95;100.00;102493.03;4938608;29;20031;-79
2023/01/31 00:55:24;;;;;;;19.65;4.53;;;;;;;0.95;100.00;102494.72;4938277;29;20075;-78
2023/01/31 00:57:49;;;;;;;23.90;6.47;;;;;;;0.94;100.00;102493.03;4938122;29;20491;-78
2023/01/31 01:00:15;;;;;;;23.63;5.55;;;;;;;0.80;100.00;102467.56;4938231;29;20023;-78
2023/01/31 01:02:41;;;;;;;21.40;4.55;;;;;;;0.90;100.00;102479.47;4938010;29;20163;-79
2023/01/31 01:05:06;;;;;;;19.10;4.35;;;;;;;0.97;100.00;102485.41;4938310;29;20103;-78
2023/01/31 01:07:32;;;;;;;23.10;5.00;;;;;;;1.01;100.00;102484.59;4938053;29;20036;-77
2023/01/31 01:09:57;;;;;;;20.15;4.75;;;;;;;1.02;100.00;102478.66;4938250;29;20039;-78
2023/01/31 01:12:22;;;;;;;21.90;5.45;;;;;;;1.07;100.00;102472.72;4937794;29;20020;-78
2023/01/31 01:14:48;;;;;;;23.80;5.22;;;;;;;1.11;100.00;102471.88;4938004;29;20028;-78
2023/01/31 01:17:13;;;;;;;24.23;6.03;;;;;;;1.14;100.00;102464.25;4937060;29;20036;-78
2023/01/31 01:19:38;;;;;;;20.13;5.05;;;;;;;1.19;100.00;102456.66;4937755;29;20038;-78
2023/01/31 01:22:04;;;;;;;24.25;5.57;;;;;;;1.22;100.00;102454.09;4937760;29;20038;-78
2023/01/31 01:24:29;;;;;;;21.73;5.95;;;;;;;1.17;100.00;102443.03;4937940;29;20028;-79
2023/01/31 01:26:54;;;;;;;21.55;6.57;;;;;;;1.21;100.00;102441.38;4937808;29;20527;-78
2023/01/31 01:29:20;;;;;;;18.88;4.93;;;;;;;1.16;100.00;102451.53;4937749;29;20046;-77
2023/01/31 01:31:45;;;;;;;21.80;5.40;;;;;;;1.13;100.00;102442.22;4937624;29;20039;-79
2023/01/31 01:34:13;;;;;;;20.20;5.53;;;;;;;1.05;100.00;102432.84;4937645;29;20028;-79
2023/01/31 01:36:39;;;;;;;28.13;6.75;;;;;;;1.11;100.00;102449.00;4937756;29;20028;-84
2023/01/31 01:39:09;;;;;;;19.10;5.68;;;;;;;0.99;100.00;102430.31;4937514;29;20431;-85
2023/01/31 01:41:36;;;;;;;25.67;6.20;;;;;;;1.03;100.00;102443.03;4937246;29;20027;-85
2023/01/31 01:44:23;;;;;;;21.80;5.43;;;;;;;0.98;100.00;102448.94;4937488;29;20035;-85
2023/01/31 01:46:48;;;;;;;23.73;5.40;;;;;;;0.94;100.00;102442.16;4937181;29;20120;-85
2023/01/31 01:49:31;;;;;;;24.63;6.15;;;;;;;0.73;100.00;102417.50;4937281;29;20110;-85
2023/01/31 01:52:01;;;;;;;20.75;5.95;;;;;;;0.77;100.00;102427.69;4937206;29;20056;-85
2023/01/31 01:54:42;;;;;;;24.98;7.07;;;;;;;0.84;100.00;102439.59;4937188;29;20024;-84
2023/01/31 01:57:09;;;;;;;23.42;6.05;;;;;;;0.79;100.00;102428.56;4937071;29;20023;-85
2023/01/31 01:59:51;;;;;;;24.75;6.18;;;;;;;0.82;100.00;102436.19;4937061;29;20028;-85
2023/01/31 02:02:17;;;;;;;26.58;7.22;;;;;;;0.74;100.00;102426.84;4936869;29;20510;-84
2023/01/31 02:04:46;;;;;;;26.73;6.47;;;;;;;0.73;100.00;102438.72;4937047;29;20023;-85
2023/01/31 02:07:12;;;;;;;24.55;7.13;;;;;;;0.77;100.00;102440.41;4936759;29;20028;-85
2023/01/31 02:09:52;;;;;;;23.33;7.05;;;;;;;0.79;100.00;102435.34;4937076;29;20116;-85
2023/01/31 02:12:21;;;;;;;23.55;7.30;;;;;;;0.63;100.00;102415.78;4936828;29;20039;-85
2023/01/31 02:14:47;;;;;;;26.25;8.32;;;;;;;0.79;100.00;102446.38;4936744;29;20107;-85
2023/01/31 02:17:15;;;;;;;26.25;8.18;;;;;;;0.65;100.00;102424.25;4936883;29;20028;-85
2023/01/31 02:20:13;;;;;;;29.52;8.95;;;;;;;0.78;100.00;102444.63;4936806;29;20086;-85
2023/01/31 02:22:54;;;;;;;34.28;10.43;;;;;;;0.64;100.00;102430.19;4915292;29;20088;-85
2023/01/31 02:25:53;;;;;;;28.08;9.93;;;;;;;0.82;100.00;102464.16;4915662;29;20032;-86
2023/01/31 02:28:36;;;;;;;29.30;9.90;;;;;;;0.90;100.00;102463.34;4914839;29;20115;-85
2023/01/31 02:31:36;;;;;;;33.72;9.23;;;;;;;0.97;100.00;102460.81;4915477;29;20044;-85
2023/01/31 02:34:21;;;;;;;28.63;9.40;;;;;;;1.07;100.00;102470.16;4859350;29;20050;-80
2023/01/31 02:37:22;;;;;;;28.33;9.70;;;;;;;1.15;100.00;102465.94;4859324;29;20029;-83
2023/01/31 02:40:00;;;;;;;32.35;11.05;;;;;;;1.17;100.00;102439.66;4822486;29;20383;-82
2023/01/31 02:42:46;;;;;;;26.33;9.18;;;;;;;1.29;100.00;102449.88;4822391;29;20073;-84
2023/01/31 02:45:17;;;;;;;30.90;10.65;;;;;;;1.33;100.00;102441.38;4822562;29;20124;-79
2023/01/31 02:47:58;;;;;;;25.67;9.98;;;;;;;1.38;100.00;102443.09;4822504;29;20034;-79
2023/01/31 02:50:30;;;;;;;32.47;10.38;;;;;;;1.13;100.00;102391.31;4822224;29;20038;-80
2023/01/31 02:53:07;;;;;;;32.35;10.85;;;;;;;1.42;100.00;102439.69;4822381;29;20042;-80
2023/01/31 02:58:31;;;;;;;28.08;10.23;;;;;;;1.33;100.00;102408.31;4822260;29;20091;-82
2023/01/31 03:01:02;;;;;;;35.88;11.05;;;;;;;1.31;100.00;102412.56;4822164;29;20055;-79
2023/01/31 03:03:30;;;;;;;32.65;10.43;;;;;;;1.55;100.00;102445.63;4822353;29;20057;-80
2023/01/31 03:06:22;;;;;;;33.45;11.88;;;;;;;1.58;100.00;102435.47;4822432;29;20030;-81
2023/01/31 03:08:56;;;;;;;36.25;11.75;;;;;;;1.54;100.00;102431.22;4785738;29;20484;-81
2023/01/31 03:11:30;;;;;;;27.42;11.65;;;;;;;1.43;100.00;102420.19;4825141;29;20053;-79
2023/01/31 03:13:55;;;;;;;29.17;11.13;;;;;;;1.45;100.00;102431.22;4840319;29;20553;-79
2023/01/31 03:19:22;;;;;;;28.48;12.13;;;;;;;1.41;100.00;102429.53;4895689;29;20124;-80
2023/01/31 03:21:47;;;;;;;;;;;;;;;1.47;100.00;102436.28;4896264;29;20036;-79
2023/01/31 03:24:15;;;;;;;32.15;11.77;;;;;;;1.33;100.00;102419.31;4895738;29;20018;-79
2023/01/31 03:26:41;;;;;;;33.28;12.23;;;;;;;1.44;100.00;102425.28;4895647;29;20041;-79
2023/01/31 03:29:09;;;;;;;33.55;11.90;;;;;;;1.36;100.00;102403.19;4895613;29;20072;-80
2023/01/31 03:31:38;;;;;;;36.03;12.98;;;;;;;1.42;100.00;102414.25;4895408;29;20047;-80
2023/01/31 03:34:07;;;;;;;28.75;10.98;;;;;;;1.46;100.00;102435.44;4895555;29;20126;-79
2023/01/31 03:36:44;;;;;;;36.90;12.35;;;;;;;1.46;100.00;102426.97;4895694;29;20039;-78
2023/01/31 03:39:32;;;;;;;26.77;12.48;;;;;;;1.46;100.00;102424.41;4895670;29;20120;-80
2023/01/31 03:42:01;;;;;;;30.02;13.18;;;;;;;1.44;100.00;102422.72;4895546;29;20445;-78
2023/01/31 03:44:35;;;;;;;36.05;12.68;;;;;;;1.43;100.00;102415.09;4895386;29;20127;-78
2023/01/31 03:47:09;;;;;;;29.13;11.82;;;;;;;1.39;100.00;102409.16;4935553;29;20027;-79
2023/01/31 03:49:40;;;;;;;40.78;13.75;;;;;;;1.08;100.00;102346.34;4935610;29;20034;-78
2023/01/31 03:52:07;;;;;;;31.33;13.55;;;;;;;1.40;100.00;102403.22;4935460;29;20038;-78
2023/01/31 03:54:41;;;;;;;31.55;12.73;;;;;;;1.21;100.00;102373.53;4935469;29;20031;-78
2023/01/31 03:57:22;;;;;;;30.88;13.82;;;;;;;1.31;100.00;102374.38;4935236;29;20031;-80
2023/01/31 03:59:52;;;;;;;32.42;13.75;;;;;;;1.46;100.00;102399.81;4935388;29;20036;-79
2023/01/31 04:02:22;;;;;;;34.20;13.93;;;;;;;1.44;100.00;102387.09;4935277;29;20604;-81
2023/01/31 04:04:54;;;;;;;40.97;13.93;;;;;;;1.49;100.00;102391.34;4935232;29;20103;-79
2023/01/31 04:07:20;;;;;;;33.83;14.27;;;;;;;1.51;100.00;102399.81;4935271;29;20054;-78
2023/01/31 04:09:45;;;;;;;39.22;14.88;;;;;;;1.33;100.00;102365.88;4935146;29;20546;-80
2023/01/31 04:12:13;;;;;;;33.85;14.05;;;;;;;1.48;100.00;102393.03;4935184;29;20036;-79
2023/01/31 04:14:38;;;;;;;37.35;15.30;;;;;;;1.38;100.00;102387.09;4935204;29;20028;-79
2023/01/31 04:17:04;;;;;;;36.50;15.18;;;;;;;1.36;100.00;102382.84;4935054;29;20083;-78
2023/01/31 04:19:29;;;;;;;39.80;15.70;;;;;;;1.20;100.00;102348.94;4935249;29;20024;-79
2023/01/31 04:21:54;;;;;;;42.00;15.95;;;;;;;1.30;100.00;102373.53;4935215;29;20115;-79
2023/01/31 04:24:20;;;;;;;41.38;16.58;;;;;;;1.41;100.00;102389.66;4935035;29;20436;-79
2023/01/31 04:26:45;;;;;;;37.55;16.88;;;;;;;1.35;100.00;102379.44;4934914;29;20039;-79
2023/01/31 04:29:11;;;;;;;38.85;17.48;;;;;;;1.37;100.00;102394.72;4933720;29;20028;-78
2023/01/31 04:31:36;;;;;;;38.15;16.88;;;;;;;1.23;100.00;102374.38;4935164;29;20046;-79
2023/01/31 04:34:02;;;;;;;39.17;17.17;;;;;;;1.25;100.00;102382.00;4935242;29;20040;-81
2023/01/31 04:36:27;;;;;;;38.70;17.65;;;;;;;1.17;100.00;102366.72;4934080;29;20102;-78
2023/01/31 04:38:52;;;;;;;42.17;17.00;;;;;;;1.19;100.00;102369.28;4935042;29;20027;-79
2023/01/31 04:41:18;;;;;;;41.33;18.08;;;;;;;0.93;100.00;102338.72;4934714;29;20094;-80
2023/01/31 04:43:43;;;;;;;41.55;17.85;;;;;;;1.06;100.00;102363.31;4934862;29;20036;-79
2023/01/31 04:46:08;;;;;;;47.55;19.00;;;;;;;0.96;100.00;102341.25;4935057;29;20035;-79
2023/01/31 04:48:34;;;;;;;42.50;19.58;;;;;;;0.93;100.00;102344.66;4934930;29;20167;-79
2023/01/31 04:50:59;;;;;;;42.67;17.75;;;;;;;1.13;100.00;102372.66;4934914;29;20097;-80
2023/01/31 04:53:24;;;;;;;41.00;18.67;;;;;;;1.04;100.00;102344.66;4937462;29;20380;-79
2023/01/31 04:55:54;;;;;;;42.55;20.08;;;;;;;1.07;100.00;102355.69;4938192;29;20486;-79
2023/01/31 04:58:19;;;;;;;37.95;18.48;;;;;;;0.85;100.00;102313.28;4937178;29;20047;-79
2023/01/31 05:00:44;;;;;;;40.33;18.25;;;;;;;0.89;100.00;102321.78;4938147;29;20054;-84
2023/01/31 05:03:10;;;;;;;48.03;20.30;;;;;;;0.93;100.00;102331.09;4938220;29;20388;-82
2023/01/31 05:05:35;;;;;;;46.28;19.17;;;;;;;1.02;100.00;102349.75;4937980;29;20024;-79
2023/01/31 05:08:00;;;;;;;46.00;19.75;;;;;;;1.08;100.00;102348.91;4938291;29;20042;-78
2023/01/31 05:10:26;;;;;;;37.15;19.83;;;;;;;1.14;100.00;102346.38;4937872;29;20076;-80
2023/01/31 05:12:51;;;;;;;50.97;21.45;;;;;;;1.07;100.00;102322.63;4937852;29;20032;-79
2023/01/31 05:15:16;;;;;;;49.10;20.42;;;;;;;1.30;100.00;102352.31;4937861;29;20094;-79
2023/01/31 05:17:50;;;;;;;47.72;20.23;;;;;;;0.74;100.00;102239.53;4938097;29;20380;-80
2023/01/31 05:20:15;;;;;;;48.53;20.67;;;;;;;1.42;100.00;102337.03;4936588;29;20024;-83
2023/01/31 05:22:47;;;;;;;49.45;19.92;;;;;;;1.27;100.00;102304.78;4937867;29;20487;-84
2023/01/31 05:25:14;;;;;;;46.35;19.73;;;;;;;1.52;100.00;102340.41;4937505;29;20023;-78
2023/01/31 05:27:40;;;;;;;48.00;20.92;;;;;;;1.43;100.00;102324.31;4937382;29;20028;-79
2023/01/31 05:30:06;;;;;;;42.40;19.52;;;;;;;1.60;100.00;102342.13;4937521;29;20502;-81
2023/01/31 05:32:31;;;;;;;48.90;19.40;;;;;;;1.62;100.00;102344.66;4937832;29;20238;-79
2023/01/31 05:34:56;;;;;;;41.25;19.48;;;;;;;1.62;100.00;102342.09;4937657;29;20020;-80
2023/01/31 05:37:22;;;;;;;38.88;18.80;;;;;;;1.64;100.00;102333.59;4937446;29;20028;-79
2023/01/31 05:39:47;;;;;;;37.40;17.58;;;;;;;1.68;100.00;102321.72;4937561;29;20054;-80
2023/01/31 05:42:12;;;;;;;36.60;17.88;;;;;;;1.59;100.00;102297.13;4937305;29;20039;-80
2023/01/31 05:44:38;;;;;;;35.10;17.55;;;;;;;1.73;100.00;102325.09;4937318;29;20091;-79
2023/01/31 05:47:03;;;;;;;37.67;17.65;;;;;;;1.78;100.00;102323.41;4937737;29;20028;-80
2023/01/31 05:49:32;;;;;;;43.92;18.13;;;;;;;1.80;100.00;102321.69;4937261;29;20165;-80
2023/01/31 05:51:57;;;;;;;37.35;17.13;;;;;;;1.80;100.00;102318.31;4937154;29;20083;-82
2023/01/31 05:54:23;;;;;;;41.10;17.98;;;;;;;1.81;100.00;102315.75;4944322;23;20060;-80
2023/01/31 05:56:48;;;;;;;40.03;17.98;;;;;;;1.76;100.00;102302.16;4937009;29;20032;-82
2023/01/31 05:59:13;;;;;;;37.58;17.10;;;;;;;1.84;100.00;102319.97;4937153;29;20058;-81
2023/01/31 06:01:39;;;;;;;39.65;17.80;;;;;;;1.78;100.00;102303.03;4937145;29;20543;-81
2023/01/31 06:04:04;;;;;;;39.65;17.33;;;;;;;1.83;100.00;102314.03;4937005;29;20549;-82
2023/01/31 06:06:29;;;;;;;35.33;18.15;;;;;;;1.90;100.00;102323.38;4936947;29;20103;-80
2023/01/31 06:08:55;;;;;;;41.15;18.27;;;;;;;1.89;100.00;102316.56;4937003;29;20479;-80
2023/01/31 06:11:20;;;;;;;33.28;17.10;;;;;;;1.92;100.00;102321.66;4936882;29;20476;-80
2023/01/31 06:13:48;;;;;;;38.63;16.83;;;;;;;1.84;100.00;102309.78;4936577;29;20024;-80
2023/01/31 06:16:13;;;;;;;38.63;16.92;;;;;;;1.67;100.00;102271.63;4936853;29;20035;-81
2023/01/31 06:18:38;;;;;;;31.25;16.73;;;;;;;1.95;100.00;102314.00;4936803;29;20031;-79
2023/01/31 06:21:04;;;;;;;37.88;16.92;;;;;;;1.83;100.00;102287.72;4935712;29;20024;-81
2023/01/31 06:31:15;;;;;;;36.30;14.93;;;;;;;2.15;100.00;102311.38;5492415;23;20393;-79
2023/01/31 06:33:40;;;;;;;33.72;15.18;;;;;;;1.79;100.00;102245.31;4936522;29;20103;-80
2023/01/31 06:36:06;;;;;;;37.13;15.60;;;;;;;2.13;100.00;102307.97;4936539;29;20480;-79
2023/01/31 06:38:32;;;;;;;32.03;14.70;;;;;;;1.86;100.00;102257.13;4936498;29;20032;-78
2023/01/31 06:43:35;;;;;;;30.65;14.88;;;;;;;1.98;100.00;102268.16;5486694;23;20010;-79
2023/01/31 06:52:48;;;;;;;31.02;14.48;;;;;;;1.86;100.00;102227.41;4935691;29;20043;-80
2023/01/31 06:55:14;;;;;;;29.83;13.18;;;;;;;1.55;100.00;102169.84;4918990;29;20043;-79
2023/01/31 06:57:47;;;;;;;31.13;13.82;;;;;;;2.15;100.00;102259.56;4935965;29;20036;-80
2023/01/31 07:00:13;;;;;;;36.58;14.32;;;;;;;2.31;100.00;102296.84;4934914;29;20365;-79
2023/01/31 07:02:38;;;;;;;34.08;14.35;;;;;;;2.34;100.00;102296.00;4935764;29;20035;-83
2023/01/31 07:05:04;;;;;;;32.92;13.88;;;;;;;2.39;100.00;102286.63;4936225;29;20031;-82
2023/01/31 07:07:29;;;;;;;31.50;13.40;;;;;;;2.42;100.00;102282.34;4935878;29;20036;-83
2023/01/31 07:09:55;;;;;;;28.98;12.48;;;;;;;2.46;100.00;102273.84;4935882;29;20020;-80
2023/01/31 07:12:21;;;;;;;34.00;13.35;;;;;;;2.48;100.00;102274.69;4935646;29;20024;-82
2023/01/31 07:14:46;;;;;;;34.58;13.55;;;;;;;2.51;100.00;102279.75;4935151;29;20035;-85
2023/01/31 07:17:11;;;;;;;30.08;12.63;;;;;;;2.56;100.00;102279.72;4935473;29;20058;-79
2023/01/31 07:19:37;;;;;;;27.10;13.45;;;;;;;2.55;100.00;102281.41;4936005;29;20110;-82
2023/01/31 07:22:02;;;;;;;31.95;13.70;;;;;;;2.52;100.00;102255.94;4935804;29;20479;-85
2023/01/31 07:24:27;;;;;;;28.50;12.18;;;;;;;2.61;100.00;102269.47;4934456;29;20024;-82
2023/01/31 07:26:53;;;;;;;31.40;12.07;;;;;;;2.63;100.00;102265.22;4935679;29;20087;-88
2023/01/31 07:29:18;;;;;;;30.60;12.55;;;;;;;2.66;100.00;102255.84;4935132;29;20051;-87
2023/01/31 07:31:43;;;;;;;31.63;13.35;;;;;;;2.69;100.00;102254.97;4935377;29;20032;-86
2023/01/31 07:34:09;;;;;;;26.70;12.20;;;;;;;2.75;100.00;102260.00;4934314;29;20039;-86
2023/01/31 07:36:34;;;;;;;31.98;11.25;;;;;;;2.80;100.00;102250.63;4935698;29;20039;-88
2023/01/31 07:39:00;;;;;;;27.88;11.15;;;;;;;2.80;100.00;102266.78;4935490;29;20066;-88
2023/01/31 07:41:26;;;;;;;32.70;12.20;;;;;;;2.74;100.00;102238.75;4935470;29;20189;-86
2023/01/31 07:43:52;;;;;;;29.77;11.75;;;;;;;2.68;100.00;102230.34;4935154;29;20461;-86
2023/01/31 07:46:17;;;;;;;24.80;10.80;;;;;;;2.90;100.00;102259.91;4935408;29;20051;-87
2023/01/31 07:48:43;;;;;;;30.58;12.15;;;;;;;2.97;100.00;102246.25;4935583;29;20024;-87
2023/01/31 07:51:09;;;;;;;27.55;10.50;;;;;;;3.00;100.00;102246.22;4935510;29;20539;-87
2023/01/31 07:53:40;;;;;;;30.08;10.32;;;;;;;2.86;100.00;102220.00;4934478;29;20059;-86
2023/01/31 07:56:13;;;;;;;22.98;11.10;;;;;;;3.03;100.00;102253.84;4936052;29;20368;-86
2023/01/31 07:58:40;;;;;;;26.60;9.38;;;;;;;3.06;100.00;102253.81;4935205;29;20081;-86
2023/01/31 08:03:49;;;;;;;25.85;9.77;;;;;;;2.63;100.00;102155.56;4935231;29;20038;-88
2023/01/31 08:06:15;;;;;;;24.00;10.00;;;;;;;3.16;100.00;102236.72;4953271;29;20713;-83
2023/01/31 08:08:41;;;;;;;28.63;10.45;;;;;;;3.10;100.00;102209.53;4955145;28;20083;-86
2023/01/31 08:11:07;;;;;;;22.60;9.43;;;;;;;3.23;100.00;102233.22;4954438;28;20058;-81
2023/01/31 08:13:34;;;;;;;26.00;9.60;;;;;;;3.22;100.00;102212.81;4954677;28;20647;-85
2023/01/31 08:16:00;;;;;;;23.95;9.68;;;;;;;3.32;100.00;102225.47;4954607;28;20029;-85
2023/01/31 08:18:26;;;;;;;24.83;9.50;;;;;;;3.19;100.00;102205.22;4954607;28;20453;-87
2023/01/31 08:20:51;;;;;;;28.85;9.25;;;;;;;3.40;100.00;102233.06;4954581;29;20043;-92
2023/01/31 08:23:17;;;;;;;22.38;9.93;;;;;;;3.24;100.00;102201.72;4954408;28;20063;-84
2023/01/31 08:25:42;;;;;;;25.15;8.98;;;;;;;3.45;100.00;102218.53;4954641;28;20066;-87
2023/01/31 08:28:08;;;;;;;25.15;9.68;;;;;;;3.50;100.00;102221.03;4957757;28;20027;-83
2023/01/31 08:30:33;;;;;;;22.10;8.73;;;;;;;3.40;100.00;102195.59;4957927;28;20027;-86
2023/01/31 08:32:59;;;;;;;20.67;7.95;;;;;;;3.57;100.00;102202.22;4957803;29;20031;-86
2023/01/31 08:35:25;;;;;;;22.50;8.63;;;;;;;3.56;100.00;102205.66;4957973;28;20038;-83
2023/01/31 08:37:51;;;;;;;24.25;9.20;;;;;;;3.53;100.00;102186.06;4957896;28;20027;-84
2023/01/31 08:40:17;;;;;;;20.80;8.35;;;;;;;3.68;100.00;102187.63;4957468;28;20467;-82
2023/01/31 08:42:42;;;;;;;24.90;8.32;;;;;;;3.73;100.00;102198.59;4957603;29;20422;-83
2023/01/31 08:45:08;;;;;;;27.42;8.65;;;;;;;3.81;100.00;102198.50;4957388;29;20055;-83
2023/01/31 08:47:35;;;;;;;32.53;8.93;;;;;;;3.83;100.00;102201.88;4957936;28;20031;-83
2023/01/31 08:50:00;;;;;;;22.05;8.55;;;;;;;3.81;100.00;102183.19;4957675;28;20034;-86
2023/01/31 08:52:26;;;;;;;20.65;7.68;;;;;;;3.59;100.00;102131.53;4957351;28;20027;-85
2023/01/31 08:54:51;;;;;;;24.48;8.27;;;;;;;3.94;100.00;102171.94;4957394;29;20036;-84
2023/01/31 08:57:16;;;;;;;20.95;7.72;;;;;;;3.99;100.00;102173.56;4957462;29;20028;-76
2023/01/31 08:59:42;;;;;;;25.85;7.80;;;;;;;4.07;100.00;102170.91;4957253;28;20031;-79
2023/01/31 09:02:10;;;;;;;24.98;10.10;;;;;;;4.12;100.00;102169.09;4955850;29;20044;-81
2023/01/31 09:04:35;;;;;;;25.52;8.68;;;;;;;4.24;100.00;102176.63;4957578;28;20455;-82
2023/01/31 09:07:00;;;;;;;20.90;8.55;;;;;;;4.26;100.00;102176.59;4957311;28;20098;-77
2023/01/31 09:09:26;;;;;;;19.13;7.88;;;;;;;4.24;100.00;102178.34;4957163;28;20062;-79
2023/01/31 09:11:51;;;;;;;32.22;9.32;;;;;;;4.24;100.00;102168.09;4957201;29;20110;-77
2023/01/31 09:14:16;;;;;;;21.52;7.80;;;;;;;4.27;100.00;102168.88;4957024;28;20028;-82
2023/01/31 09:16:44;;;;;;;24.42;8.23;;;;;;;4.31;100.00;102167.97;4957006;29;20035;-87
2023/01/31 09:19:09;;;;;;;21.55;8.27;;;;;;;4.14;100.00;102123.94;4957153;28;20023;-79
2023/01/31 09:21:35;;;;;;;22.02;8.05;;;;;;;4.12;100.00;102094.97;4957027;28;20023;-81
2023/01/31 09:24:03;;;;;;;21.83;7.88;;;;;;;4.61;100.00;102146.16;4955823;29;20463;-78
2023/01/31 09:26:29;;;;;;;20.23;7.28;;;;;;;4.68;100.00;102133.28;4956909;28;20107;-79
2023/01/31 09:28:56;;;;;;;27.63;7.57;;;;;;;4.81;100.00;102150.91;4956691;28;20019;-80
2023/01/31 09:31:22;;;;;;;23.73;7.18;;;;;;;4.84;100.00;102158.56;4956778;28;20770;-82
2023/01/31 09:33:47;;;;;;;17.63;7.57;;;;;;;4.95;100.00;102166.06;4956846;28;20035;-82
2023/01/31 09:36:15;;;;;;;22.40;7.82;;;;;;;5.01;100.00;102165.91;4955786;29;20390;-77
2023/01/31 09:38:41;;;;;;;21.65;7.47;;;;;;;4.75;100.00;102119.50;4956594;28;20031;-81
2023/01/31 09:41:22;;;;;;;18.00;8.38;;;;;;;4.66;100.00;102107.72;4957011;29;20023;-80
2023/01/31 09:43:57;;;;;;;22.90;7.40;;;;;;;4.80;100.00;102120.25;4956559;28;20066;-80
2023/01/31 09:46:26;;;;;;;20.92;7.90;;;;;;;4.90;100.00;102116.66;4956690;28;20027;-80
2023/01/31 09:48:54;;;;;;;20.65;8.05;;;;;;;4.90;100.00;102135.41;4956492;28;20027;-79
2023/01/31 09:51:19;;;;;;;23.70;7.80;;;;;;;4.75;100.00;102119.50;4956074;28;20416;-79
2023/01/31 09:53:45;;;;;;;19.92;7.68;;;;;;;5.05;100.00;102165.00;4956021;28;20078;-82
2023/01/31 09:56:47;;;;;;;24.58;7.72;;;;;;;4.91;100.00;102126.00;4947781;23;20051;-82
2023/01/31 09:59:24;;;;;;;18.98;7.35;;;;;;;5.11;100.00;102148.66;4937328;29;20059;-81
2023/01/31 10:02:04;;;;;;;18.00;6.63;;;;;;;5.16;100.00;102152.00;4937155;29;20055;-80
2023/01/31 10:04:32;;;;;;;20.30;7.80;;;;;;;5.18;100.00;102143.41;4935573;29;20107;-82
2023/01/31 10:07:08;;;;;;;22.58;8.45;;;;;;;5.23;100.00;102135.66;4936881;29;20024;-76
2023/01/31 10:09:42;;;;;;;21.38;8.80;;;;;;;4.87;100.00;102071.47;4937135;29;20059;-84
2023/01/31 10:12:15;;;;;;;21.42;9.43;;;;;;;5.37;100.00;102118.28;4937029;29;20056;-79
2023/01/31 10:15:17;;;;;;;24.75;9.43;;;;;;;5.74;100.00;102130.31;4936954;29;20039;-79
2023/01/31 10:17:48;;;;;;;29.42;9.60;;;;;;;5.78;100.00;102141.31;4896626;29;20044;-82
2023/01/31 10:20:25;;;;;;;25.55;11.02;;;;;;;5.35;100.00;102091.84;4896961;29;20268;-83
2023/01/31 10:23:06;;;;;;;23.63;11.20;;;;;;;5.43;100.00;102125.00;4896821;29;20044;-81
2023/01/31 10:25:53;;;;;;;24.57;11.83;;;;;;;5.42;100.00;102142.09;4897155;29;20063;-83
2023/01/31 10:28:42;;;;;;;22.48;11.85;;;;;;;5.31;100.00;102146.59;4896924;29;20346;-88
2023/01/31 10:31:30;;;;;;;27.35;13.65;;;;;;;5.25;100.00;102151.81;4895759;29;20048;-83
2023/01/31 10:34:05;;;;;;;24.52;12.93;;;;;;;5.27;100.00;102162.03;4896817;29;20152;-84
2023/01/31 10:36:48;;;;;;;26.55;13.07;;;;;;;5.32;100.00;102157.69;4897382;29;20071;-87
2023/01/31 10:39:35;;;;;;;31.73;14.15;;;;;;;5.35;100.00;102143.09;4896430;29;20036;-87
2023/01/31 10:42:36;;;;;;;29.58;15.05;;;;;;;5.19;100.00;102103.28;4896438;29;20036;-87
2023/01/31 10:45:07;;;;;;;31.17;15.65;;;;;;;5.47;100.00;102141.97;4896277;29;20039;-85
2023/01/31 10:47:35;;;;;;;35.45;15.35;;;;;;;5.22;100.00;102102.41;4896151;29;20072;-82
2023/01/31 10:50:27;;;;;;;30.52;16.73;;;;;;;5.15;100.00;102071.78;4895545;29;20029;-86
2023/01/31 10:53:14;;;;;;;34.20;17.88;;;;;;;5.72;100.00;102137.19;4910492;29;20054;-85
2023/01/31 10:56:02;;;;;;;34.28;18.10;;;;;;;5.73;100.00;102128.63;4935812;29;20559;-81
2023/01/31 10:58:28;;;;;;;33.40;18.42;;;;;;;5.67;100.00;102124.47;4936254;29;20050;-78
2023/01/31 11:00:54;;;;;;;34.65;18.92;;;;;;;5.74;100.00;102138.84;4935820;29;20110;-85
2023/01/31 11:03:20;;;;;;;34.85;18.95;;;;;;;5.47;100.00;102083.91;4936103;29;20403;-81
2023/01/31 11:05:54;;;;;;;39.90;18.70;;;;;;;5.75;100.00;102135.41;4935900;29;20391;-79
2023/01/31 11:08:49;;;;;;;29.25;17.48;;;;;;;5.44;100.00;102076.28;4935948;29;20036;-80
2023/01/31 11:11:17;;;;;;;37.35;19.02;;;;;;;5.74;100.00;102125.19;4935924;29;20138;-80
2023/01/31 11:13:54;;;;;;;27.65;17.25;;;;;;;5.80;100.00;102104.56;4935790;29;20056;-82
2023/01/31 11:16:39;;;;;;;33.20;18.15;;;;;;;5.56;100.00;102062.38;4934331;29;20036;-77
2023/01/31 11:19:31;;;;;;;32.75;18.83;;;;;;;5.14;100.00;101989.88;4934708;29;20027;-79
2023/01/31 11:22:22;;;;;;;43.78;19.70;;;;;;;5.71;100.00;102063.75;4935843;29;20068;-86
2023/01/31 11:24:48;;;;;;;32.28;17.20;;;;;;;5.96;100.00;102079.41;4935562;29;20152;-78
2023/01/31 11:27:27;;;;;;;30.83;17.65;;;;;;;5.37;100.00;101992.75;4935669;29;20020;-78
2023/01/31 11:29:56;;;;;;;34.10;17.95;;;;;;;5.64;100.00;102039.97;4935636;29;20031;-80
2023/01/31 11:32:29;;;;;;;32.95;17.55;;;;;;;5.99;100.00;102087.88;4935425;29;20063;-79
2023/01/31 11:34:54;;;;;;;34.25;18.10;;;;;;;5.97;100.00;102094.75;4935573;29;20028;-79
2023/01/31 11:37:19;;;;;;;32.90;18.42;;;;;;;5.80;100.00;102073.78;4935386;29;20054;-81
2023/01/31 11:40:14;;;;;;;29.40;15.95;;;;;;;5.23;100.00;101973.47;4935049;29;20031;-80
2023/01/31 11:43:00;;;;;;;32.70;16.77;;;;;;;5.89;100.00;102082.97;4901541;29;20072;-80
2023/01/31 11:45:35;;;;;;;27.50;16.95;;;;;;;5.86;100.00;102076.19;4914796;29;20047;-83
2023/01/31 11:48:12;;;;;;;29.33;16.98;;;;;;;5.87;100.00;102072.75;4914470;29;20381;-82
2023/01/31 11:50:41;;;;;;;29.25;15.82;;;;;;;5.87;100.00;102075.31;4914285;29;20036;-78